Time;durP1;ratioP1;P1;durP2;ratioP2;P2;SDS_P1;SDS_P2;PMS_P1;PMS_P2;Temp;Humidity;BMP_temperature;BMP_pressure;BME280_temperature;BME280_humidity;BME280_pressure;Samples;Min_cycle;Max_cycle;Signal;HPM_P1;HPM_P2
2023/05/09 00:00:46;;;;;;;10.17;6.60;;;16.40;99.90;;;;;;5133363;27;20185;-80
2023/05/09 00:03:13;;;;;;;9.50;6.23;;;16.30;99.90;;;;;;5115150;28;20238;-78
2023/05/09 00:05:39;;;;;;;8.90;6.53;;;16.30;99.90;;;;;;5096631;28;20188;-79
2023/05/09 00:08:05;;;;;;;10.30;6.40;;;16.10;99.90;;;;;;5103595;27;20640;-79
2023/05/09 00:10:31;;;;;;;9.47;6.60;;;16.20;99.90;;;;;;5116009;27;20220;-79
2023/05/09 00:12:57;;;;;;;8.83;6.07;;;16.20;99.90;;;;;;5134513;27;20224;-79
2023/05/09 00:15:24;;;;;;;9.20;6.33;;;16.20;99.90;;;;;;5116139;27;20196;-79
2023/05/09 00:17:50;;;;;;;8.10;6.40;;;16.10;99.90;;;;;;5135233;27;20161;-79
2023/05/09 00:20:16;;;;;;;9.40;6.27;;;16.10;99.90;;;;;;5097861;27;20565;-78
2023/05/09 00:22:42;;;;;;;8.07;6.43;;;16.20;99.90;;;;;;5134535;27;20176;-78
2023/05/09 00:25:09;;;;;;;8.93;6.57;;;16.20;99.90;;;;;;5132804;27;20632;-77
2023/05/09 00:27:35;;;;;;;9.07;6.63;;;16.10;99.90;;;;;;5117452;27;20268;-76
2023/05/09 00:30:03;;;;;;;9.07;6.47;;;16.20;99.90;;;;;;5113958;28;20175;-78
2023/05/09 00:32:31;;;;;;;11.07;6.70;;;16.20;99.90;;;;;;5113924;27;20192;-77
2023/05/09 00:34:57;;;;;;;9.80;6.30;;;16.40;99.90;;;;;;5129532;27;20190;-77
2023/05/09 00:37:22;;;;;;;9.73;6.57;;;16.20;99.90;;;;;;5115725;27;20218;-77
2023/05/09 00:39:48;;;;;;;12.23;6.27;;;16.10;99.90;;;;;;5134177;27;20181;-77
2023/05/09 00:42:14;;;;;;;8.57;6.03;;;16.20;99.90;;;;;;5115181;27;20623;-76
2023/05/09 00:44:39;;;;;;;8.83;6.13;;;16.20;99.90;;;;;;5096144;28;20264;-77
2023/05/09 00:47:08;;;;;;;8.90;5.70;;;16.30;99.90;;;;;;5113917;28;20154;-77
2023/05/09 00:49:34;;;;;;;9.43;6.13;;;16.30;99.90;;;;;;5113126;28;20215;-75
2023/05/09 00:52:01;;;;;;;8.67;6.03;;;16.30;99.90;;;;;;5113117;28;20182;-76
2023/05/09 00:54:27;;;;;;;11.37;6.00;;;16.40;99.90;;;;;;5095936;28;20189;-76
2023/05/09 00:56:53;;;;;;;10.40;6.00;;;16.40;99.90;;;;;;5114481;27;20280;-76
2023/05/09 00:59:19;;;;;;;11.03;5.50;;;16.40;99.90;;;;;;5114510;27;20174;-75
2023/05/09 01:01:45;;;;;;;9.80;5.33;;;16.40;99.90;;;;;;5102207;28;20180;-75
2023/05/09 01:04:11;;;;;;;8.60;5.70;;;16.40;99.90;;;;;;5115162;28;20232;-76
2023/05/09 01:06:42;;;;;;;8.93;5.87;;;16.50;99.90;;;;;;5114655;28;20266;-76
2023/05/09 01:09:18;;;;;;;8.13;6.03;;;16.50;99.90;;;;;;5115733;28;20321;-75
2023/05/09 01:11:50;;;;;;;9.80;6.00;;;16.60;99.90;;;;;;5115646;28;20172;-76
2023/05/09 01:14:47;;;;;;;9.63;6.33;;;16.60;99.90;;;;;;5133341;28;20181;-75
2023/05/09 01:17:57;;;;;;;9.17;5.97;;;16.60;99.90;;;;;;5115421;28;20227;-75
2023/05/09 01:20:35;;;;;;;9.50;5.37;;;16.50;99.90;;;;;;5088578;28;20173;-76
2023/05/09 01:23:40;;;;;;;7.77;5.33;;;16.30;99.90;;;;;;5134119;28;20218;-78
2023/05/09 01:26:31;;;;;;;8.33;5.90;;;16.30;99.90;;;;;;5135768;27;20169;-75
2023/05/09 01:29:32;;;;;;;9.77;5.50;;;16.30;99.90;;;;;;5089790;27;20302;-76
2023/05/09 01:32:02;;;;;;;8.90;5.60;;;16.30;99.90;;;;;;5081247;27;20188;-76
2023/05/09 01:34:31;;;;;;;9.27;5.70;;;16.30;99.90;;;;;;5119089;27;20184;-75
2023/05/09 01:37:00;;;;;;;7.00;5.20;;;16.40;99.90;;;;;;5119875;27;20179;-76
2023/05/09 01:39:29;;;;;;;8.47;5.57;;;16.40;99.90;;;;;;5105458;28;20215;-75
2023/05/09 01:41:56;;;;;;;10.10;5.67;;;16.20;99.90;;;;;;5116425;27;20254;-75
2023/05/09 01:44:23;;;;;;;8.07;5.77;;;16.20;99.90;;;;;;5116439;28;20524;-75
2023/05/09 01:46:54;;;;;;;9.83;5.90;;;16.30;99.90;;;;;;5098263;28;20197;-75
2023/05/09 01:49:21;;;;;;;10.87;5.63;;;16.40;99.90;;;;;;5129527;27;20209;-75
2023/05/09 01:51:49;;;;;;;11.30;5.73;;;16.50;99.90;;;;;;5118631;27;20169;-75
2023/05/09 01:54:16;;;;;;;7.40;5.73;;;16.60;99.90;;;;;;5117454;27;20173;-75
2023/05/09 01:56:42;;;;;;;10.87;5.97;;;16.30;99.90;;;;;;5097882;28;20230;-76
2023/05/09 01:59:14;;;;;;;8.27;5.60;;;16.30;99.90;;;;;;5098006;28;20188;-76
2023/05/09 02:01:41;;;;;;;10.00;5.70;;;16.50;99.90;;;;;;5097958;28;20188;-75
2023/05/09 02:04:08;;;;;;;9.53;5.33;;;16.50;99.90;;;;;;5097701;28;20199;-78
2023/05/09 02:06:36;;;;;;;7.97;5.63;;;16.50;99.90;;;;;;5097871;28;20264;-78
2023/05/09 02:09:02;;;;;;;10.07;5.73;;;16.50;99.90;;;;;;5097865;28;20182;-78
2023/05/09 02:11:28;;;;;;;10.67;5.13;;;16.40;99.90;;;;;;5115699;28;20174;-78
2023/05/09 02:13:54;;;;;;;8.63;5.33;;;16.40;99.90;;;;;;5116172;28;20196;-77
2023/05/09 02:16:19;;;;;;;8.70;5.50;;;16.40;99.90;;;;;;5115927;28;20282;-77
2023/05/09 02:18:45;;;;;;;8.27;5.00;;;16.40;99.90;;;;;;5105703;28;20196;-77
2023/05/09 02:21:11;;;;;;;8.33;5.57;;;16.40;99.90;;;;;;5115840;28;20203;-77
2023/05/09 02:23:37;;;;;;;8.53;5.93;;;16.50;99.90;;;;;;5097804;28;20178;-77
2023/05/09 02:26:03;;;;;;;10.57;5.50;;;16.50;99.90;;;;;;5116202;27;20256;-76
2023/05/09 02:28:29;;;;;;;9.37;5.73;;;16.40;99.90;;;;;;5098130;27;20224;-77
2023/05/09 02:30:58;;;;;;;10.33;5.57;;;16.50;99.90;;;;;;5097729;28;20224;-77
2023/05/09 02:33:26;;;;;;;8.00;5.37;;;16.50;99.90;;;;;;5116496;28;20575;-77
2023/05/09 02:35:52;;;;;;;9.97;5.87;;;16.50;99.90;;;;;;5116093;28;20190;-76
2023/05/09 02:38:19;;;;;;;13.00;5.20;;;16.40;99.90;;;;;;5116092;28;20177;-78
2023/05/09 02:40:46;;;;;;;6.90;5.23;;;16.40;99.90;;;;;;5098485;28;20174;-77
2023/05/09 02:43:13;;;;;;;9.17;5.33;;;16.30;99.90;;;;;;5115303;27;20316;-77
2023/05/09 02:45:39;;;;;;;8.57;5.57;;;16.40;99.90;;;;;;5128882;27;20528;-77
2023/05/09 02:48:05;;;;;;;8.17;5.50;;;16.50;99.90;;;;;;5117485;27;20170;-77
2023/05/09 02:50:31;;;;;;;8.63;5.13;;;16.50;99.90;;;;;;5117518;27;20545;-76
2023/05/09 02:52:57;;;;;;;7.53;5.00;;;16.40;99.90;;;;;;5135961;27;20245;-77
2023/05/09 02:55:22;;;;;;;10.50;5.30;;;16.30;99.90;;;;;;5135859;27;20189;-77
2023/05/09 02:57:48;;;;;;;11.57;5.80;;;16.30;99.90;;;;;;5117653;27;20173;-78
2023/05/09 03:00:14;;;;;;;11.40;5.80;;;16.40;99.90;;;;;;5135566;27;20226;-76
2023/05/09 03:02:40;;;;;;;7.43;5.43;;;16.60;99.90;;;;;;5117966;27;20215;-77
2023/05/09 03:05:06;;;;;;;10.53;5.80;;;16.60;99.90;;;;;;5114518;28;20630;-77
2023/05/09 03:07:33;;;;;;;8.17;5.67;;;16.70;99.90;;;;;;5115572;27;20186;-77
2023/05/09 03:10:00;;;;;;;11.33;6.37;;;16.60;99.90;;;;;;5115243;28;20257;-76
2023/05/09 03:12:26;;;;;;;11.53;6.90;;;16.60;99.90;;;;;;5114962;28;20709;-78
2023/05/09 03:14:52;;;;;;;11.17;6.43;;;16.60;99.90;;;;;;5114540;28;20243;-78
2023/05/09 03:17:20;;;;;;;9.53;6.10;;;16.60;99.90;;;;;;5115423;27;20576;-77
2023/05/09 03:19:47;;;;;;;8.77;6.10;;;16.60;99.90;;;;;;5114568;28;20169;-77
2023/05/09 03:22:13;;;;;;;10.30;6.93;;;16.60;99.90;;;;;;5114857;28;20750;-77
2023/05/09 03:24:40;;;;;;;9.73;6.57;;;16.50;99.90;;;;;;5096616;28;20186;-77
2023/05/09 03:27:05;;;;;;;10.47;6.70;;;16.40;99.90;;;;;;5097369;28;20174;-77
2023/05/09 03:29:32;;;;;;;8.37;6.60;;;16.30;99.90;;;;;;5115500;28;20248;-78
2023/05/09 03:31:59;;;;;;;10.03;6.43;;;16.20;99.90;;;;;;5097327;28;20264;-77
2023/05/09 03:34:25;;;;;;;10.47;6.90;;;16.20;99.90;;;;;;5115491;28;20170;-77
2023/05/09 03:36:51;;;;;;;9.23;6.07;;;16.10;99.90;;;;;;5115686;28;20162;-77
2023/05/09 03:39:16;;;;;;;9.30;6.27;;;16.00;99.90;;;;;;5115147;28;20173;-77
2023/05/09 03:41:43;;;;;;;11.43;6.23;;;16.00;99.90;;;;;;5114317;28;20261;-77
2023/05/09 03:44:08;;;;;;;9.13;6.67;;;16.10;99.90;;;;;;5096080;28;20197;-77
2023/05/09 03:46:34;;;;;;;9.23;6.33;;;16.20;99.90;;;;;;5096118;28;20169;-76
2023/05/09 03:49:01;;;;;;;9.57;6.30;;;16.20;99.90;;;;;;5095158;28;20189;-77
2023/05/09 03:51:29;;;;;;;8.87;6.07;;;16.40;99.90;;;;;;5096361;28;20178;-77
2023/05/09 03:53:56;;;;;;;9.73;6.27;;;16.40;99.90;;;;;;5114332;28;20215;-77
2023/05/09 03:56:22;;;;;;;11.30;6.67;;;16.40;99.90;;;;;;5095967;28;20202;-77
2023/05/09 03:58:48;;;;;;;10.57;7.37;;;16.40;99.90;;;;;;5113862;28;20295;-77
2023/05/09 04:01:14;;;;;;;9.13;6.00;;;16.40;99.90;;;;;;5124009;27;20276;-77
2023/05/09 04:03:41;;;;;;;8.57;6.00;;;16.50;99.90;;;;;;5131406;27;20177;-77
2023/05/09 04:06:07;;;;;;;8.50;6.13;;;16.40;99.90;;;;;;5114149;28;20177;-76
2023/05/09 04:08:33;;;;;;;9.33;6.67;;;16.50;99.90;;;;;;5113787;28;20170;-76
2023/05/09 04:10:58;;;;;;;7.10;6.37;;;16.50;99.90;;;;;;5113988;28;20164;-77
2023/05/09 04:13:26;;;;;;;9.53;6.70;;;16.60;99.90;;;;;;5095648;28;20606;-76
2023/05/09 04:15:53;;;;;;;10.37;6.63;;;16.50;99.90;;;;;;5114113;28;20194;-76
2023/05/09 04:18:19;;;;;;;10.63;6.83;;;16.50;99.90;;;;;;5114083;28;20183;-77
2023/05/09 04:20:45;;;;;;;8.17;6.13;;;16.60;99.90;;;;;;5114174;28;20174;-76
2023/05/09 04:23:10;;;;;;;8.97;6.87;;;16.50;99.90;;;;;;5097774;28;20170;-77
2023/05/09 04:25:36;;;;;;;8.87;6.57;;;16.50;99.90;;;;;;5103344;28;20186;-76
2023/05/09 04:28:02;;;;;;;8.03;6.77;;;16.50;99.90;;;;;;5113479;28;20204;-76
2023/05/09 04:30:27;;;;;;;10.40;6.70;;;16.50;99.90;;;;;;5113393;28;20185;-77
2023/05/09 04:32:54;;;;;;;10.13;6.87;;;16.50;99.90;;;;;;5113672;28;20182;-76
2023/05/09 04:35:22;;;;;;;10.33;6.93;;;16.60;99.90;;;;;;5094962;28;20193;-77
2023/05/09 04:37:47;;;;;;;9.87;6.80;;;16.60;99.90;;;;;;5113320;28;20484;-76
2023/05/09 04:40:13;;;;;;;8.90;6.90;;;16.50;99.90;;;;;;5113214;28;20235;-76
2023/05/09 04:42:40;;;;;;;10.97;7.27;;;16.50;99.90;;;;;;5096319;28;20603;-78
2023/05/09 04:45:06;;;;;;;8.07;7.27;;;16.60;99.90;;;;;;5116587;27;20241;-77
2023/05/09 04:47:32;;;;;;;10.03;7.17;;;16.40;99.90;;;;;;5135400;27;20169;-76
2023/05/09 04:49:57;;;;;;;9.60;6.20;;;16.20;99.90;;;;;;5116253;27;20180;-77
2023/05/09 04:52:24;;;;;;;8.63;7.50;;;16.20;99.90;;;;;;5116296;27;20169;-76
2023/05/09 04:54:50;;;;;;;9.03;6.77;;;16.30;99.90;;;;;;5115214;27;20215;-77
2023/05/09 04:57:16;;;;;;;10.90;7.13;;;16.30;99.90;;;;;;5115774;28;20618;-77
2023/05/09 04:59:41;;;;;;;8.63;7.30;;;16.50;99.90;;;;;;5116016;27;20177;-77
2023/05/09 05:02:07;;;;;;;9.53;6.90;;;16.30;99.90;;;;;;5105644;28;20192;-77
2023/05/09 05:04:35;;;;;;;8.43;6.90;;;16.20;99.90;;;;;;5099441;28;20188;-76
2023/05/09 05:07:00;;;;;;;9.37;6.83;;;16.00;99.90;;;;;;5113778;28;20182;-76
2023/05/09 05:09:26;;;;;;;10.10;7.37;;;16.20;99.90;;;;;;5113485;28;20181;-76
2023/05/09 05:11:52;;;;;;;9.80;6.93;;;16.20;99.90;;;;;;5097943;28;20181;-77
2023/05/09 05:14:19;;;;;;;8.80;7.50;;;16.10;99.90;;;;;;5113129;28;20546;-76
2023/05/09 05:16:47;;;;;;;10.07;7.20;;;16.00;99.90;;;;;;5127019;28;20181;-77
2023/05/09 05:19:13;;;;;;;9.07;6.57;;;15.70;99.90;;;;;;5131575;28;20192;-76
2023/05/09 05:21:39;;;;;;;10.03;7.30;;;15.70;99.90;;;;;;5124145;28;20229;-78
2023/05/09 05:24:04;;;;;;;11.47;7.37;;;15.50;99.90;;;;;;5114679;28;20661;-77
2023/05/09 05:26:30;;;;;;;8.90;7.27;;;15.30;99.90;;;;;;5104323;28;20185;-77
2023/05/09 05:28:56;;;;;;;9.23;7.90;;;15.30;99.90;;;;;;5113589;28;20158;-76
2023/05/09 05:31:22;;;;;;;12.27;7.50;;;15.30;99.90;;;;;;5113377;28;20548;-77
2023/05/09 05:33:48;;;;;;;10.67;8.20;;;15.50;99.90;;;;;;5113617;28;20164;-77
2023/05/09 05:36:13;;;;;;;10.03;8.00;;;15.50;99.90;;;;;;5095004;28;20203;-77
2023/05/09 05:38:39;;;;;;;9.57;7.47;;;15.80;99.90;;;;;;5097843;28;20170;-77
2023/05/09 05:41:05;;;;;;;8.53;6.83;;;15.80;99.90;;;;;;5133821;28;20212;-77
2023/05/09 05:43:30;;;;;;;10.00;6.93;;;15.80;99.90;;;;;;5116598;28;20251;-77
2023/05/09 05:45:56;;;;;;;9.43;6.80;;;15.90;99.90;;;;;;5112762;28;20680;-77
2023/05/09 05:48:22;;;;;;;10.13;6.77;;;15.70;99.90;;;;;;5112910;28;20187;-77
2023/05/09 05:50:47;;;;;;;9.80;7.10;;;15.60;99.90;;;;;;5094674;28;20198;-78
2023/05/09 05:53:14;;;;;;;6.40;5.73;;;15.60;99.90;;;;;;5094576;28;20208;-76
2023/05/09 05:55:40;;;;;;;9.40;6.47;;;15.70;99.90;;;;;;5099163;28;20554;-77
2023/05/09 05:58:07;;;;;;;9.53;7.13;;;15.90;99.90;;;;;;5115443;28;20233;-76
2023/05/09 06:00:32;;;;;;;8.00;6.17;;;15.90;99.90;;;;;;5115657;28;20188;-77
2023/05/09 06:02:58;;;;;;;9.93;6.87;;;15.90;99.90;;;;;;5126474;28;20528;-77
2023/05/09 06:05:24;;;;;;;9.07;6.03;;;16.00;99.90;;;;;;5133963;28;20306;-78
2023/05/09 06:07:49;;;;;;;8.90;6.17;;;16.00;99.90;;;;;;5133319;28;20180;-77
2023/05/09 06:10:16;;;;;;;7.03;6.30;;;15.80;99.90;;;;;;5133458;28;20173;-78
2023/05/09 06:12:41;;;;;;;6.43;5.83;;;16.00;99.90;;;;;;5118228;27;20200;-77
2023/05/09 06:15:07;;;;;;;7.90;6.20;;;16.20;99.90;;;;;;5137171;27;20214;-76
2023/05/09 06:17:34;;;;;;;6.90;6.20;;;16.20;99.90;;;;;;5118688;27;20226;-75
2023/05/09 06:20:00;;;;;;;11.60;6.33;;;16.20;99.90;;;;;;5119814;27;20188;-76
2023/05/09 06:22:25;;;;;;;10.47;6.60;;;16.40;99.90;;;;;;5137512;27;20165;-77
2023/05/09 06:24:51;;;;;;;8.20;6.30;;;16.50;99.90;;;;;;5119291;27;20547;-77
2023/05/09 06:27:17;;;;;;;6.80;5.87;;;16.50;99.90;;;;;;5137879;27;20527;-77
2023/05/09 06:29:42;;;;;;;8.57;5.63;;;16.30;99.90;;;;;;5118469;27;20185;-77
2023/05/09 06:32:08;;;;;;;7.17;5.70;;;16.40;99.90;;;;;;5118079;27;20184;-77
2023/05/09 06:34:33;;;;;;;7.07;5.83;;;16.50;99.90;;;;;;5136599;27;20164;-77
2023/05/09 06:36:59;;;;;;;7.40;5.93;;;16.60;99.90;;;;;;5136444;27;20170;-77
2023/05/09 06:39:25;;;;;;;7.90;5.80;;;16.60;99.90;;;;;;5136320;27;20180;-78
2023/05/09 06:41:50;;;;;;;8.67;6.00;;;16.70;99.90;;;;;;5136630;27;20304;-78
2023/05/09 06:44:16;;;;;;;7.70;5.70;;;16.80;99.90;;;;;;5118127;27;20185;-77
2023/05/09 06:46:42;;;;;;;5.53;4.97;;;16.90;99.90;;;;;;5136274;27;20184;-77
2023/05/09 06:49:09;;;;;;;7.37;6.07;;;17.00;99.90;;;;;;5136440;27;20638;-77
2023/05/09 06:51:36;;;;;;;6.43;5.83;;;16.80;99.90;;;;;;5135990;27;20235;-77
2023/05/09 06:54:02;;;;;;;6.70;5.17;;;16.60;99.90;;;;;;5136009;27;20538;-76
2023/05/09 06:56:27;;;;;;;8.00;6.03;;;16.20;99.90;;;;;;5135965;27;20211;-78
2023/05/09 06:58:53;;;;;;;8.57;5.80;;;16.30;99.90;;;;;;5136543;27;20537;-77
2023/05/09 07:01:19;;;;;;;6.97;5.53;;;16.30;99.90;;;;;;5118598;27;20195;-77
2023/05/09 07:03:46;;;;;;;6.57;5.67;;;16.30;99.90;;;;;;5136793;27;20165;-78
2023/05/09 07:06:12;;;;;;;6.67;5.27;;;16.50;99.90;;;;;;5118648;27;20191;-78
2023/05/09 07:08:38;;;;;;;6.63;5.17;;;16.60;99.90;;;;;;5136962;27;20269;-77
2023/05/09 07:11:04;;;;;;;6.57;5.23;;;16.70;99.90;;;;;;5136814;27;20193;-76
2023/05/09 07:13:29;;;;;;;9.83;5.80;;;16.40;99.90;;;;;;5117210;27;20228;-76
2023/05/09 07:15:56;;;;;;;6.20;5.37;;;16.30;99.90;;;;;;5135700;27;20193;-77
2023/05/09 07:18:23;;;;;;;6.93;5.63;;;16.30;99.90;;;;;;5117172;27;20255;-75
2023/05/09 07:20:49;;;;;;;8.27;5.87;;;16.30;99.90;;;;;;5116988;27;20622;-76
2023/05/09 07:23:14;;;;;;;8.20;5.20;;;16.30;99.90;;;;;;5115929;27;20192;-76
2023/05/09 07:25:40;;;;;;;8.17;5.67;;;16.40;99.90;;;;;;5135899;27;20495;-77
2023/05/09 07:28:07;;;;;;;7.23;5.90;;;16.60;99.90;;;;;;5116879;27;20182;-76
2023/05/09 07:30:32;;;;;;;8.87;6.27;;;16.60;99.90;;;;;;5117354;27;20181;-76
2023/05/09 07:32:58;;;;;;;6.77;6.07;;;16.60;99.90;;;;;;5117540;27;20599;-76
2023/05/09 07:35:25;;;;;;;9.80;6.27;;;16.80;99.90;;;;;;5136149;27;20665;-76
2023/05/09 07:37:50;;;;;;;6.60;5.77;;;16.80;99.90;;;;;;5117213;27;20177;-76
2023/05/09 07:40:17;;;;;;;7.00;6.30;;;16.50;99.90;;;;;;5117784;27;20185;-76
2023/05/09 07:42:48;;;;;;;16.77;6.43;;;16.60;99.90;;;;;;5135609;27;20166;-76
2023/05/09 07:45:17;;;;;;;8.43;5.73;;;16.40;99.90;;;;;;5117099;27;20178;-77
2023/05/09 07:47:42;;;;;;;7.53;5.73;;;16.60;99.90;;;;;;5117398;27;20235;-77
2023/05/09 07:50:08;;;;;;;6.13;5.50;;;16.60;99.90;;;;;;5117058;27;20273;-76
2023/05/09 07:52:35;;;;;;;5.77;5.00;;;16.40;99.90;;;;;;5117577;27;20188;-76
2023/05/09 07:55:00;;;;;;;7.87;5.23;;;16.50;99.90;;;;;;5117141;27;20295;-77
2023/05/09 07:57:26;;;;;;;9.00;4.77;;;16.50;99.90;;;;;;5135940;27;20237;-76
2023/05/09 07:59:52;;;;;;;5.90;5.30;;;16.60;99.90;;;;;;5116287;27;20165;-76
2023/05/09 08:02:17;;;;;;;7.33;5.40;;;16.70;99.90;;;;;;5116476;27;20180;-76
2023/05/09 08:04:47;;;;;;;6.00;5.03;;;16.50;99.90;;;;;;5134567;27;20169;-76
2023/05/09 08:07:13;;;;;;;5.93;4.87;;;16.50;99.90;;;;;;5134850;27;20657;-76
2023/05/09 08:09:38;;;;;;;6.70;5.17;;;16.70;99.90;;;;;;5116426;27;20181;-75
2023/05/09 08:12:04;;;;;;;6.60;4.80;;;16.70;99.90;;;;;;5116306;27;20194;-75
2023/05/09 08:14:30;;;;;;;4.80;4.30;;;16.80;99.90;;;;;;5116366;27;20283;-76
2023/05/09 08:16:56;;;;;;;6.83;4.90;;;16.60;99.90;;;;;;5135167;27;20600;-76
2023/05/09 08:19:28;;;;;;;10.07;4.43;;;16.30;99.90;;;;;;5116033;27;20176;-76
2023/05/09 08:21:54;;;;;;;7.07;5.10;;;16.30;99.90;;;;;;5135279;27;20177;-77
2023/05/09 08:24:21;;;;;;;7.17;5.30;;;16.40;99.90;;;;;;5116560;27;20550;-74
2023/05/09 08:26:46;;;;;;;6.77;4.97;;;16.50;99.90;;;;;;5134969;27;20287;-75
2023/05/09 08:29:12;;;;;;;8.30;5.60;;;16.70;99.90;;;;;;5115749;27;20643;-74
2023/05/09 08:31:38;;;;;;;6.23;5.03;;;16.60;99.90;;;;;;5134187;27;20181;-75
2023/05/09 08:34:03;;;;;;;9.87;5.60;;;16.40;99.90;;;;;;5115224;27;20178;-76
2023/05/09 08:36:29;;;;;;;7.67;5.07;;;16.60;99.90;;;;;;5133974;27;20212;-76
2023/05/09 08:38:55;;;;;;;6.97;5.43;;;16.70;99.90;;;;;;5115436;27;20181;-76
2023/05/09 08:41:26;;;;;;;6.50;4.80;;;16.60;99.90;;;;;;5115425;27;20578;-75
2023/05/09 08:43:53;;;;;;;6.47;4.80;;;16.60;99.90;;;;;;5133605;27;20537;-76
2023/05/09 08:46:26;;;;;;;5.83;4.90;;;16.60;99.90;;;;;;5133842;27;20638;-75
2023/05/09 08:48:52;;;;;;;7.47;5.10;;;16.60;99.90;;;;;;5114906;27;20544;-75
2023/05/09 08:51:20;;;;;;;5.63;4.63;;;16.60;99.90;;;;;;5115185;27;20205;-75
2023/05/09 08:53:47;;;;;;;7.47;4.73;;;16.40;99.90;;;;;;5115273;27;20268;-74
2023/05/09 08:56:13;;;;;;;8.13;5.43;;;16.30;99.90;;;;;;5115421;27;20228;-76
2023/05/09 08:58:39;;;;;;;6.80;4.33;;;16.40;99.90;;;;;;5115204;28;20181;-77
2023/05/09 09:01:05;;;;;;;11.90;4.80;;;16.40;99.90;;;;;;5133310;27;20552;-76
2023/05/09 09:03:32;;;;;;;5.57;4.87;;;16.20;99.90;;;;;;5133275;27;20175;-76
2023/05/09 09:05:58;;;;;;;7.07;4.60;;;16.20;99.90;;;;;;5133380;27;20185;-80
2023/05/09 09:08:26;;;;;;;10.17;9.00;;;16.20;99.90;;;;;;5115297;28;20177;-78
2023/05/09 09:10:52;;;;;;;9.10;6.83;;;15.90;99.90;;;;;;5115025;28;20268;-80
2023/05/09 09:13:20;;;;;;;7.10;4.97;;;15.90;99.90;;;;;;5133558;28;20189;-79
2023/05/09 09:15:47;;;;;;;7.17;5.43;;;15.90;99.90;;;;;;5134497;28;20321;-78
2023/05/09 09:18:22;;;;;;;9.10;5.10;;;16.00;99.90;;;;;;5134706;28;20532;-78
2023/05/09 09:20:57;;;;;;;6.83;4.63;;;15.80;99.90;;;;;;5116229;28;20172;-78
2023/05/09 09:23:25;;;;;;;7.30;5.10;;;16.10;99.90;;;;;;5116020;28;20630;-79
2023/05/09 09:26:01;;;;;;;6.73;4.50;;;16.20;99.90;;;;;;5115432;28;20589;-80
2023/05/09 09:28:28;;;;;;;4.80;4.40;;;16.10;99.90;;;;;;5115757;28;20168;-79
2023/05/09 09:30:54;;;;;;;6.37;4.03;;;16.20;99.90;;;;;;5115302;28;20222;-79
2023/05/09 09:33:21;;;;;;;5.23;4.43;;;16.40;99.90;;;;;;5115758;28;20251;-78
2023/05/09 09:35:52;;;;;;;7.73;6.00;;;16.40;99.90;;;;;;5116001;28;20209;-79
2023/05/09 09:38:19;;;;;;;9.90;8.03;;;16.40;99.90;;;;;;5134553;28;20249;-77
2023/05/09 09:40:55;;;;;;;9.57;5.00;;;16.60;99.90;;;;;;5134230;28;20216;-80
2023/05/09 09:43:30;;;;;;;5.13;4.10;;;16.50;99.90;;;;;;5115768;28;20641;-78
2023/05/09 09:46:00;;;;;;;7.33;4.30;;;16.40;99.90;;;;;;5114927;28;20176;-79
2023/05/09 09:48:32;;;;;;;11.07;8.30;;;16.50;99.90;;;;;;5137061;27;20181;-78
2023/05/09 09:51:10;;;;;;;5.57;3.87;;;16.40;99.90;;;;;;5137376;27;20169;-79
2023/05/09 09:53:40;;;;;;;6.97;4.07;;;16.30;99.90;;;;;;5118954;27;20212;-79
2023/05/09 09:56:06;;;;;;;6.10;3.87;;;16.40;99.90;;;;;;5137028;27;20737;-79
2023/05/09 09:58:33;;;;;;;8.00;3.60;;;16.30;99.90;;;;;;5137378;27;20537;-79
2023/05/09 10:01:12;;;;;;;5.27;3.70;;;16.20;99.90;;;;;;5138070;27;20166;-79
2023/05/09 10:03:43;;;;;;;5.10;3.97;;;15.90;99.90;;;;;;5119671;27;20177;-79
2023/05/09 10:06:11;;;;;;;5.23;3.90;;;15.90;99.90;;;;;;5119715;27;20185;-80
2023/05/09 10:08:38;;;;;;;4.87;3.90;;;15.70;99.90;;;;;;5119651;27;20271;-80
2023/05/09 10:11:04;;;;;;;6.37;4.10;;;15.80;99.90;;;;;;5119779;27;20208;-79
2023/05/09 10:13:34;;;;;;;7.07;3.83;;;15.90;99.90;;;;;;5119462;27;20665;-80
2023/05/09 10:16:00;;;;;;;9.80;4.40;;;15.90;99.90;;;;;;5136403;27;20696;-79
2023/05/09 10:18:29;;;;;;;4.87;4.37;;;15.90;99.90;;;;;;5136782;27;20173;-78
2023/05/09 10:21:00;;;;;;;5.47;4.40;;;15.90;99.90;;;;;;5118040;27;20320;-78
2023/05/09 10:23:28;;;;;;;8.83;4.70;;;15.90;99.90;;;;;;5118256;27;20230;-79
2023/05/09 10:26:00;;;;;;;6.90;4.40;;;16.00;99.90;;;;;;5136503;27;20188;-79
2023/05/09 10:28:31;;;;;;;5.90;3.57;;;16.10;99.90;;;;;;5136624;27;20238;-79
2023/05/09 10:31:22;;;;;;;6.20;3.37;;;16.10;99.90;;;;;;5136952;27;20231;-78
2023/05/09 10:33:49;;;;;;;5.53;4.13;;;15.90;99.90;;;;;;5137358;27;20369;-78
2023/05/09 10:36:20;;;;;;;5.20;3.90;;;16.00;99.90;;;;;;5136964;27;20185;-78
2023/05/09 10:38:54;;;;;;;6.87;4.13;;;16.10;99.90;;;;;;5119341;27;20170;-78
2023/05/09 10:41:23;;;;;;;7.53;4.27;;;16.30;99.90;;;;;;5136951;27;20162;-80
2023/05/09 10:43:49;;;;;;;7.53;4.00;;;16.40;99.90;;;;;;5136521;27;20161;-79
2023/05/09 10:46:17;;;;;;;6.77;3.73;;;16.50;99.90;;;;;;5137124;27;20170;-79
2023/05/09 10:48:43;;;;;;;7.43;4.47;;;16.30;99.90;;;;;;5137030;27;20181;-78
2023/05/09 10:51:11;;;;;;;5.13;4.30;;;16.30;99.90;;;;;;5118279;27;20208;-78
2023/05/09 10:53:48;;;;;;;6.93;4.73;;;16.30;99.90;;;;;;5136424;27;20170;-79
2023/05/09 10:56:31;;;;;;;6.37;3.93;;;16.20;99.90;;;;;;5118696;27;20757;-79
2023/05/09 10:58:59;;;;;;;6.07;3.57;;;16.10;99.90;;;;;;5117929;27;20180;-79
2023/05/09 11:01:42;;;;;;;5.97;4.00;;;15.90;99.90;;;;;;5136753;27;20164;-79
2023/05/09 11:04:13;;;;;;;4.80;3.23;;;15.90;99.90;;;;;;5118838;27;20694;-79
2023/05/09 11:06:51;;;;;;;7.70;4.10;;;15.60;99.90;;;;;;5118364;27;20189;-78
2023/05/09 11:09:36;;;;;;;4.70;3.87;;;15.40;99.90;;;;;;5118004;27;20660;-78
2023/05/09 11:12:13;;;;;;;5.87;3.93;;;15.30;99.90;;;;;;5118036;27;20169;-78
2023/05/09 11:14:47;;;;;;;6.23;3.97;;;15.30;99.90;;;;;;5136202;27;20625;-78
2023/05/09 11:17:23;;;;;;;6.37;4.40;;;15.40;99.90;;;;;;5117012;27;20168;-78
2023/05/09 11:19:50;;;;;;;5.53;4.20;;;15.40;99.90;;;;;;5135564;27;20153;-78
2023/05/09 11:22:20;;;;;;;5.60;3.93;;;15.50;99.90;;;;;;5135457;27;20176;-78
2023/05/09 11:25:00;;;;;;;7.80;4.10;;;15.60;99.90;;;;;;5135772;27;20688;-78
2023/05/09 11:27:27;;;;;;;5.83;4.03;;;15.80;99.90;;;;;;5135543;27;20972;-79
2023/05/09 11:29:54;;;;;;;6.67;4.37;;;15.70;99.90;;;;;;5116853;27;20626;-79
2023/05/09 11:32:25;;;;;;;5.20;4.00;;;15.80;99.90;;;;;;5135836;27;20173;-78
2023/05/09 11:34:51;;;;;;;5.57;4.17;;;15.80;99.90;;;;;;5117557;27;20173;-78
2023/05/09 11:37:19;;;;;;;10.77;4.47;;;15.60;99.90;;;;;;5135843;27;20167;-78
2023/05/09 11:40:04;;;;;;;8.73;4.83;;;15.50;99.90;;;;;;5117331;27;20538;-78
2023/05/09 11:42:31;;;;;;;4.77;3.97;;;15.40;99.90;;;;;;5135536;27;20204;-79
2023/05/09 11:44:58;;;;;;;5.07;4.30;;;15.60;99.90;;;;;;5135774;27;20201;-78
2023/05/09 11:47:26;;;;;;;5.37;3.80;;;15.80;99.90;;;;;;5135817;27;20169;-79
2023/05/09 11:49:52;;;;;;;6.80;4.13;;;15.70;99.90;;;;;;5117336;27;20177;-77
2023/05/09 11:52:19;;;;;;;4.50;3.80;;;15.60;99.90;;;;;;5135260;27;20170;-78
2023/05/09 11:54:45;;;;;;;4.27;3.40;;;15.40;99.90;;;;;;5135765;27;20168;-79
2023/05/09 11:57:16;;;;;;;4.73;4.30;;;15.30;99.90;;;;;;5116976;27;20584;-78
2023/05/09 11:59:43;;;;;;;6.77;4.57;;;15.20;99.90;;;;;;5117333;27;20181;-77
2023/05/09 12:02:09;;;;;;;6.57;4.50;;;15.30;99.90;;;;;;5134954;27;20530;-79
2023/05/09 12:04:35;;;;;;;5.77;4.77;;;15.20;99.90;;;;;;5116216;27;20171;-77
2023/05/09 12:07:01;;;;;;;6.07;5.33;;;15.20;99.90;;;;;;5135546;27;20199;-77
2023/05/09 12:09:31;;;;;;;8.27;5.30;;;15.20;99.90;;;;;;5115855;27;20540;-76
2023/05/09 12:11:58;;;;;;;7.73;5.90;;;15.40;99.90;;;;;;5117013;27;20273;-76
2023/05/09 12:14:32;;;;;;;6.53;4.87;;;15.70;99.90;;;;;;5134816;27;20164;-77
2023/05/09 12:16:59;;;;;;;5.90;4.80;;;15.50;99.90;;;;;;5135317;27;20513;-79
2023/05/09 12:19:25;;;;;;;4.57;3.63;;;15.40;99.90;;;;;;5135466;27;20172;-79
2023/05/09 12:21:59;;;;;;;7.33;3.37;;;15.30;99.90;;;;;;5135012;27;20149;-77
2023/05/09 12:24:25;;;;;;;4.53;1.77;;;15.20;99.90;;;;;;5134422;27;20631;-75
2023/05/09 12:26:52;;;;;;;3.77;1.70;;;15.10;99.90;;;;;;5115526;27;20222;-75
2023/05/09 12:29:19;;;;;;;3.37;1.70;;;15.00;99.90;;;;;;5134112;27;20158;-75
2023/05/09 12:31:45;;;;;;;3.07;1.80;;;15.00;99.90;;;;;;5115941;27;20176;-75
2023/05/09 12:34:12;;;;;;;5.77;2.00;;;15.20;99.90;;;;;;5115842;27;20173;-75
2023/05/09 12:36:38;;;;;;;3.93;1.80;;;15.20;99.90;;;;;;5115659;27;20618;-75
2023/05/09 12:39:12;;;;;;;3.10;1.50;;;15.20;99.90;;;;;;5115464;27;20200;-75
2023/05/09 12:41:45;;;;;;;2.90;1.93;;;15.30;99.90;;;;;;5115471;27;20172;-75
2023/05/09 12:44:25;;;;;;;5.60;1.90;;;15.30;99.90;;;;;;5115301;27;20184;-74
2023/05/09 12:47:01;;;;;;;5.00;2.30;;;15.50;99.90;;;;;;5115407;27;20200;-74
2023/05/09 12:49:28;;;;;;;5.30;1.80;;;15.60;99.90;;;;;;5115330;27;20184;-74